createdAt,value
2017-09-28T00:02:15.869Z,14.70
2017-09-28T00:04:43.325Z,14.70
2017-09-28T00:07:10.778Z,14.70
2017-09-28T00:09:38.249Z,14.70
2017-09-28T00:12:05.734Z,14.70
2017-09-28T00:14:33.211Z,14.70
2017-09-28T00:17:01.430Z,14.70
2017-09-28T00:19:28.882Z,14.60
2017-09-28T00:21:56.365Z,14.70
2017-09-28T00:24:23.817Z,14.70
2017-09-28T00:26:51.290Z,14.70
2017-09-28T00:29:18.773Z,14.70
2017-09-28T00:31:46.997Z,14.70
2017-09-28T00:34:14.454Z,14.60
2017-09-28T00:36:41.937Z,14.60
2017-09-28T00:39:09.390Z,14.50
2017-09-28T00:41:36.849Z,14.50
2017-09-28T00:44:04.573Z,14.50
2017-09-28T00:46:32.033Z,14.50
2017-09-28T00:48:59.488Z,14.50
2017-09-28T00:51:26.974Z,14.50
2017-09-28T00:53:54.447Z,14.50
2017-09-28T00:56:21.898Z,14.50
2017-09-28T00:58:49.365Z,14.50
2017-09-28T01:01:16.822Z,14.50
2017-09-28T01:03:44.293Z,14.50
2017-09-28T01:06:12.513Z,14.40
2017-09-28T01:08:39.966Z,14.40
2017-09-28T01:11:07.458Z,14.40
2017-09-28T01:13:34.913Z,14.40
2017-09-28T01:16:02.369Z,14.40
2017-09-28T01:18:36.741Z,14.40
2017-09-28T01:21:04.974Z,14.40
2017-09-28T01:23:32.417Z,14.30
2017-09-28T01:26:00.658Z,14.30
2017-09-28T01:28:28.113Z,14.30
2017-09-28T01:30:55.575Z,14.30
2017-09-28T01:33:23.048Z,14.30
2017-09-28T01:35:50.537Z,14.30
2017-09-28T01:38:17.976Z,14.30
2017-09-28T01:40:45.461Z,14.40
2017-09-28T01:43:12.926Z,14.30
2017-09-28T01:45:40.368Z,14.30
2017-09-28T01:48:08.096Z,14.30
2017-09-28T01:50:35.539Z,14.30
2017-09-28T01:53:03.016Z,14.30
2017-09-28T01:55:30.479Z,14.30
2017-09-28T01:57:57.933Z,14.30
2017-09-28T02:00:25.477Z,14.30
2017-09-28T02:02:52.925Z,14.30
2017-09-28T02:05:20.369Z,14.30
2017-09-28T02:07:48.614Z,14.20
2017-09-28T02:10:16.064Z,14.20
2017-09-28T02:12:43.509Z,14.30
2017-09-28T02:15:11.029Z,14.30
2017-09-28T02:17:39.249Z,14.30
2017-09-28T02:20:06.702Z,14.30
2017-09-28T02:22:34.187Z,14.20
2017-09-28T02:25:01.635Z,14.20
2017-09-28T02:27:29.076Z,14.20
2017-09-28T02:29:57.545Z,14.20
2017-09-28T02:32:24.994Z,14.10
2017-09-28T02:34:52.457Z,14.10
2017-09-28T02:37:19.938Z,14.10
2017-09-28T02:39:47.389Z,14.00
2017-09-28T02:42:14.832Z,13.90
2017-09-28T02:44:42.336Z,13.90
2017-09-28T02:47:09.797Z,13.80
2017-09-28T02:49:37.277Z,13.90
2017-09-28T02:52:05.488Z,14.00
2017-09-28T02:54:32.933Z,14.00
2017-09-28T02:57:00.407Z,14.00
2017-09-28T02:59:27.857Z,14.00
2017-09-28T03:01:55.311Z,14.00
2017-09-28T03:04:22.784Z,14.00
2017-09-28T03:06:50.238Z,14.00
2017-09-28T03:09:17.702Z,13.90
2017-09-28T03:11:45.185Z,13.80
2017-09-28T03:14:12.637Z,13.80
2017-09-28T03:16:40.093Z,13.80
2017-09-28T03:19:07.582Z,13.80
2017-09-28T03:21:35.792Z,13.80
2017-09-28T03:24:03.281Z,13.80
2017-09-28T03:26:30.737Z,13.80
2017-09-28T03:28:58.188Z,13.80
2017-09-28T03:31:26.441Z,13.90
2017-09-28T03:33:54.204Z,13.90
2017-09-28T03:36:21.659Z,13.90
2017-09-28T03:38:49.150Z,13.80
2017-09-28T03:41:17.361Z,13.80
2017-09-28T03:43:45.601Z,13.80
2017-09-28T03:46:13.068Z,13.80
2017-09-28T03:48:40.530Z,13.80
2017-09-28T03:51:08.022Z,13.80
2017-09-28T03:53:36.241Z,13.70
2017-09-28T03:56:03.697Z,13.60
2017-09-28T03:58:31.169Z,13.60
2017-09-28T04:00:58.626Z,13.60
2017-09-28T04:03:26.080Z,13.70
2017-09-28T04:05:53.582Z,13.70
2017-09-28T04:08:21.789Z,13.60
2017-09-28T04:10:49.224Z,13.60
2017-09-28T04:13:17.482Z,13.60
2017-09-28T04:15:45.553Z,13.50
2017-09-28T04:18:13.059Z,13.60
2017-09-28T04:20:41.284Z,13.60
2017-09-28T04:23:09.509Z,13.60
2017-09-28T04:25:37.000Z,13.60
2017-09-28T04:28:04.451Z,13.60
2017-09-28T04:30:32.660Z,13.60
2017-09-28T04:33:00.921Z,13.60
2017-09-28T04:35:28.356Z,13.60
2017-09-28T04:37:55.825Z,13.60
2017-09-28T04:40:23.308Z,13.50
2017-09-28T04:42:51.546Z,13.50
2017-09-28T04:45:19.037Z,13.50
2017-09-28T04:47:47.276Z,13.40
2017-09-28T04:50:15.588Z,13.40
2017-09-28T04:52:43.036Z,13.40
2017-09-28T04:55:10.690Z,13.40
2017-09-28T04:57:38.159Z,13.40
2017-09-28T05:00:06.333Z,13.30
2017-09-28T05:02:33.800Z,13.30
2017-09-28T05:05:02.025Z,13.30
2017-09-28T05:07:29.477Z,13.20
2017-09-28T05:09:57.162Z,13.30
2017-09-28T05:12:24.902Z,13.30
2017-09-28T05:14:52.386Z,13.30
2017-09-28T05:17:20.075Z,13.30
2017-09-28T05:19:48.297Z,13.20
2017-09-28T05:22:15.788Z,13.20
2017-09-28T05:24:43.232Z,13.20
2017-09-28T05:27:10.694Z,13.20
2017-09-28T05:29:38.171Z,13.20
2017-09-28T05:32:05.626Z,13.10
2017-09-28T05:34:33.120Z,13.10
2017-09-28T05:37:01.337Z,13.10
2017-09-28T05:39:28.806Z,13.00
2017-09-28T05:41:56.282Z,13.00
2017-09-28T05:44:23.738Z,13.00
2017-09-28T05:46:51.185Z,13.00
2017-09-28T05:49:18.655Z,13.00
2017-09-28T05:51:46.173Z,13.00
2017-09-28T05:54:13.608Z,13.00
2017-09-28T05:56:41.101Z,13.00
2017-09-28T05:59:08.956Z,13.00
2017-09-28T06:01:36.444Z,13.00
2017-09-28T06:04:03.973Z,13.00
2017-09-28T06:06:31.406Z,13.00
2017-09-28T06:08:59.199Z,13.00
2017-09-28T06:11:26.640Z,13.00
2017-09-28T06:13:54.084Z,13.00
2017-09-28T06:16:22.364Z,13.00
2017-09-28T06:18:50.664Z,12.90
2017-09-28T06:21:22.797Z,12.90
2017-09-28T06:23:51.132Z,12.90
2017-09-28T06:26:18.992Z,12.80
2017-09-28T06:28:46.498Z,12.80
2017-09-28T06:31:13.946Z,12.80
2017-09-28T06:33:41.401Z,12.90
2017-09-28T06:36:08.942Z,12.90
2017-09-28T06:38:37.206Z,12.80
2017-09-28T06:41:04.648Z,12.80
2017-09-28T06:43:33.842Z,12.80
2017-09-28T06:46:01.284Z,12.80
2017-09-28T06:48:29.346Z,12.80
2017-09-28T06:50:56.854Z,12.70
2017-09-28T06:53:24.315Z,12.70
2017-09-28T06:55:51.763Z,12.80
2017-09-28T06:58:19.253Z,12.70
2017-09-28T07:00:46.731Z,12.70
2017-09-28T07:03:14.950Z,12.70
2017-09-28T07:05:42.440Z,12.70
2017-09-28T07:08:09.896Z,12.80
2017-09-28T07:10:37.360Z,12.80
2017-09-28T07:13:04.833Z,12.90
2017-09-28T07:15:33.150Z,13.00
2017-09-28T07:18:00.670Z,13.00
2017-09-28T07:20:28.184Z,13.10
2017-09-28T07:22:55.633Z,13.20
2017-09-28T07:25:23.097Z,13.30
2017-09-28T07:27:50.568Z,13.30
2017-09-28T07:30:18.030Z,13.30
2017-09-28T07:32:45.482Z,13.40
2017-09-28T07:35:13.638Z,13.30
2017-09-28T07:37:41.092Z,13.30
2017-09-28T07:40:08.532Z,13.40
2017-09-28T07:42:36.034Z,13.40
2017-09-28T07:45:03.485Z,13.60
2017-09-28T07:47:30.938Z,13.60
2017-09-28T07:49:58.454Z,13.70
2017-09-28T07:52:26.673Z,13.90
2017-09-28T07:54:54.131Z,13.90
2017-09-28T07:57:21.613Z,14.00
2017-09-28T07:59:49.688Z,14.10
2017-09-28T08:02:17.136Z,14.10
2017-09-28T08:04:44.616Z,14.20
2017-09-28T08:07:12.829Z,14.30
2017-09-28T08:09:40.279Z,14.30
2017-09-28T08:12:07.758Z,14.30
2017-09-28T08:14:35.213Z,14.40
2017-09-28T08:17:02.669Z,14.40
2017-09-28T08:19:30.169Z,14.40
2017-09-28T08:21:57.626Z,14.30
2017-09-28T08:24:25.085Z,14.30
2017-09-28T08:26:52.564Z,14.40
2017-09-28T08:29:20.784Z,14.50
2017-09-28T08:31:48.233Z,14.50
2017-09-28T08:34:15.701Z,14.50
2017-09-28T08:36:43.148Z,14.50
2017-09-28T08:39:10.639Z,14.60
2017-09-28T08:41:38.098Z,14.70
2017-09-28T08:44:05.583Z,14.70
2017-09-28T08:46:33.034Z,14.70
2017-09-28T08:49:00.476Z,14.80
2017-09-28T08:51:27.929Z,14.80
2017-09-28T08:53:55.401Z,14.80
2017-09-28T08:56:23.112Z,14.90
2017-09-28T08:58:50.565Z,14.90
2017-09-28T09:01:18.069Z,15.00
2017-09-28T09:03:45.478Z,15.00
2017-09-28T09:06:12.959Z,15.10
2017-09-28T09:08:40.503Z,15.10
2017-09-28T09:11:07.941Z,15.20
2017-09-28T09:13:35.424Z,15.30
2017-09-28T09:16:03.191Z,15.40
2017-09-28T09:18:30.634Z,15.50
2017-09-28T09:20:58.113Z,15.60
2017-09-28T09:23:25.573Z,15.70
2017-09-28T09:25:53.030Z,15.80
2017-09-28T09:28:20.505Z,15.80
2017-09-28T09:30:47.953Z,15.90
2017-09-28T09:33:15.408Z,15.80
2017-09-28T09:35:42.881Z,15.90
2017-09-28T09:38:10.329Z,15.90
2017-09-28T09:40:37.810Z,16.00
2017-09-28T09:43:05.475Z,16.00
2017-09-28T09:45:32.914Z,16.00
2017-09-28T09:48:00.393Z,16.00
2017-09-28T09:50:28.105Z,16.00
2017-09-28T09:52:55.561Z,16.10
2017-09-28T09:55:23.080Z,16.20
2017-09-28T09:57:50.514Z,16.30
2017-09-28T10:00:17.961Z,16.40
2017-09-28T10:02:45.702Z,16.50
2017-09-28T10:05:13.165Z,16.50
2017-09-28T10:07:45.630Z,16.50
2017-09-28T10:10:16.985Z,16.50
2017-09-28T10:12:47.001Z,16.60
2017-09-28T10:15:22.240Z,16.70
2017-09-28T10:17:49.716Z,16.90
2017-09-28T10:20:17.170Z,16.90
2017-09-28T10:22:44.616Z,17.00
2017-09-28T10:25:12.118Z,17.00
2017-09-28T10:27:39.576Z,17.00
2017-09-28T10:30:07.103Z,17.00
2017-09-28T10:32:34.564Z,17.00
2017-09-28T10:35:02.008Z,17.10
2017-09-28T10:37:29.465Z,17.10
2017-09-28T10:39:56.944Z,17.10
2017-09-28T10:42:24.394Z,17.10
2017-09-28T10:44:52.074Z,17.20
2017-09-28T10:47:19.551Z,17.40
2017-09-28T10:49:46.992Z,17.60
2017-09-28T10:52:14.443Z,17.60
2017-09-28T10:54:41.936Z,17.60
2017-09-28T10:57:10.143Z,17.60
2017-09-28T10:59:37.588Z,17.60
2017-09-28T11:02:05.056Z,17.70
2017-09-28T11:04:32.517Z,17.70
2017-09-28T11:06:59.972Z,17.80
2017-09-28T11:09:27.448Z,17.80
2017-09-28T11:11:54.897Z,17.90
2017-09-28T11:14:22.345Z,17.90
2017-09-28T11:16:49.941Z,18.10
2017-09-28T11:19:17.386Z,18.10
2017-09-28T11:21:44.828Z,18.20
2017-09-28T11:24:12.316Z,18.20
2017-09-28T11:26:39.779Z,18.10
2017-09-28T11:29:07.234Z,18.20
2017-09-28T11:31:34.715Z,18.30
2017-09-28T11:34:02.924Z,18.40
2017-09-28T11:36:30.369Z,18.30
2017-09-28T11:38:57.847Z,18.40
2017-09-28T11:41:25.309Z,18.30
2017-09-28T11:43:52.760Z,18.40
2017-09-28T11:46:20.233Z,18.40
2017-09-28T11:48:47.690Z,18.50
2017-09-28T11:51:15.155Z,18.60
2017-09-28T11:53:42.688Z,18.60
2017-09-28T11:56:10.366Z,18.60
2017-09-28T11:58:37.805Z,18.70
2017-09-28T12:01:05.383Z,18.60
2017-09-28T12:03:32.840Z,18.50
2017-09-28T12:06:00.298Z,18.60
2017-09-28T12:08:27.791Z,18.80
2017-09-28T12:10:55.236Z,19.00
2017-09-28T12:13:22.680Z,19.20
2017-09-28T12:15:50.161Z,19.20
2017-09-28T12:18:17.620Z,19.30
2017-09-28T12:20:45.124Z,19.40
2017-09-28T12:23:13.458Z,19.40
2017-09-28T12:25:40.912Z,19.50
2017-09-28T12:28:08.369Z,19.70
2017-09-28T12:30:35.848Z,19.90
2017-09-28T12:33:03.289Z,20.20
2017-09-28T12:35:30.732Z,20.40
2017-09-28T12:37:58.216Z,20.60
2017-09-28T12:40:25.666Z,20.60
2017-09-28T12:42:53.124Z,20.70
2017-09-28T12:45:20.597Z,20.60
2017-09-28T12:47:48.292Z,20.70
2017-09-28T12:50:15.746Z,21.10
2017-09-28T12:52:43.246Z,21.50
2017-09-28T12:55:10.685Z,21.80
2017-09-28T12:57:38.138Z,22.10
2017-09-28T13:00:05.621Z,21.70
2017-09-28T13:02:33.076Z,21.40
2017-09-28T13:05:00.534Z,21.50
2017-09-28T13:07:28.000Z,21.50
2017-09-28T13:09:55.443Z,21.70
2017-09-28T13:12:22.892Z,22.20
2017-09-28T13:14:50.420Z,22.50
2017-09-28T13:17:18.625Z,22.40
2017-09-28T13:19:46.069Z,22.40
2017-09-28T13:22:13.548Z,22.60
2017-09-28T13:24:41.004Z,22.50
2017-09-28T13:27:08.455Z,22.60
2017-09-28T13:29:35.926Z,22.80
2017-09-28T13:32:03.461Z,23.20
2017-09-28T13:34:30.957Z,23.50
2017-09-28T13:36:58.442Z,23.10
2017-09-28T13:39:26.962Z,22.00
2017-09-28T13:41:54.429Z,21.90
2017-09-28T13:44:21.900Z,21.40
2017-09-28T13:46:49.574Z,21.40
2017-09-28T13:49:17.038Z,21.50
2017-09-28T13:51:44.521Z,21.50
2017-09-28T13:54:12.754Z,21.40
2017-09-28T13:56:40.200Z,21.30
2017-09-28T13:59:07.713Z,21.30
2017-09-28T14:01:35.924Z,21.20
2017-09-28T14:04:03.378Z,21.20
2017-09-28T14:06:30.849Z,21.30
2017-09-28T14:08:58.296Z,21.40
2017-09-28T14:11:25.751Z,21.50
2017-09-28T14:13:53.224Z,21.70
2017-09-28T14:16:20.668Z,21.70
2017-09-28T14:18:48.230Z,21.60
2017-09-28T14:21:15.700Z,21.40
2017-09-28T14:23:43.144Z,21.10
2017-09-28T14:26:10.707Z,20.90
2017-09-28T14:28:38.172Z,20.70
2017-09-28T14:31:05.934Z,20.70
2017-09-28T14:33:33.372Z,20.50
2017-09-28T14:36:00.857Z,20.20
2017-09-28T14:38:28.340Z,20.30
2017-09-28T14:40:55.791Z,20.30
2017-09-28T14:43:23.263Z,20.30
2017-09-28T14:45:50.980Z,20.30
2017-09-28T14:48:18.421Z,20.50
2017-09-28T14:50:46.205Z,20.60
2017-09-28T14:53:13.652Z,20.70
2017-09-28T14:55:41.095Z,20.90
2017-09-28T14:58:09.363Z,21.10
2017-09-28T15:00:37.573Z,20.90
2017-09-28T15:03:05.032Z,20.80
2017-09-28T15:05:32.518Z,20.90
2017-09-28T15:07:59.968Z,20.90
2017-09-28T15:10:27.420Z,20.90
2017-09-28T15:12:54.895Z,20.80
2017-09-28T15:15:22.353Z,20.50
2017-09-28T15:17:50.561Z,20.30
2017-09-28T15:20:18.834Z,20.30
2017-09-28T15:22:46.244Z,20.30
2017-09-28T15:25:13.696Z,20.30
2017-09-28T15:27:41.230Z,20.20
2017-09-28T15:30:08.702Z,19.90
2017-09-28T15:32:36.168Z,19.80
2017-09-28T15:35:03.649Z,19.80
2017-09-28T15:37:31.101Z,19.80
2017-09-28T15:39:58.558Z,19.80
2017-09-28T15:42:26.042Z,19.90
2017-09-28T15:44:53.493Z,19.80
2017-09-28T15:47:21.227Z,19.80
2017-09-28T15:49:48.702Z,19.80
2017-09-28T15:52:16.156Z,19.70
2017-09-28T15:54:43.692Z,19.60
2017-09-28T15:57:11.176Z,19.60
2017-09-28T15:59:38.633Z,19.50
2017-09-28T16:02:06.080Z,19.40
2017-09-28T16:04:34.347Z,19.30
2017-09-28T16:07:01.800Z,19.30
2017-09-28T16:09:29.258Z,19.30
2017-09-28T16:11:56.745Z,19.20
2017-09-28T16:14:24.967Z,19.20
2017-09-28T16:16:53.180Z,19.20
2017-09-28T16:19:20.664Z,19.20
2017-09-28T16:21:48.107Z,19.20
2017-09-28T16:24:15.635Z,19.20
2017-09-28T16:26:43.128Z,19.10
2017-09-28T16:29:10.577Z,19.00
2017-09-28T16:31:38.038Z,18.90
2017-09-28T16:34:05.778Z,18.90
2017-09-28T16:36:33.233Z,18.80
2017-09-28T16:39:00.689Z,18.70
2017-09-28T16:41:28.278Z,18.60
2017-09-28T16:43:55.663Z,18.50
2017-09-28T16:46:23.101Z,18.40
2017-09-28T16:48:50.605Z,18.40
2017-09-28T16:51:18.060Z,18.30
2017-09-28T16:53:46.272Z,18.20
2017-09-28T16:56:13.748Z,18.20
2017-09-28T16:58:41.206Z,18.20
2017-09-28T17:01:08.721Z,18.20
2017-09-28T17:03:36.205Z,18.20
2017-09-28T17:06:03.648Z,18.20
2017-09-28T17:08:31.113Z,18.20
2017-09-28T17:10:58.576Z,18.10
2017-09-28T17:13:26.066Z,18.00
2017-09-28T17:15:53.505Z,18.00
2017-09-28T17:18:20.989Z,17.90
2017-09-28T17:20:48.459Z,17.90
2017-09-28T17:23:16.972Z,17.80
2017-09-28T17:25:44.669Z,17.80
2017-09-28T17:28:12.116Z,17.80
2017-09-28T17:30:39.797Z,17.70
2017-09-28T17:33:07.274Z,17.70
2017-09-28T17:35:34.712Z,17.70
2017-09-28T17:38:02.251Z,17.60
2017-09-28T17:40:29.727Z,17.50
2017-09-28T17:42:57.177Z,17.50
2017-09-28T17:45:24.913Z,17.40
2017-09-28T17:47:52.384Z,17.40
2017-09-28T17:50:19.832Z,17.40
2017-09-28T17:52:47.346Z,17.30
2017-09-28T17:55:14.856Z,17.30
2017-09-28T17:57:42.316Z,17.30
2017-09-28T18:00:09.753Z,17.30
2017-09-28T18:02:37.530Z,17.20
2017-09-28T18:05:04.988Z,17.10
2017-09-28T18:07:32.444Z,17.20
2017-09-28T18:09:59.924Z,17.20
2017-09-28T18:12:28.146Z,17.10
2017-09-28T18:14:56.469Z,17.10
2017-09-28T18:17:24.067Z,17.10
2017-09-28T18:19:51.518Z,17.10
2017-09-28T18:22:18.974Z,17.10
2017-09-28T18:24:47.278Z,17.00
2017-09-28T18:27:15.497Z,16.90
2017-09-28T18:29:42.945Z,16.90
2017-09-28T18:32:10.424Z,16.90
2017-09-28T18:34:37.873Z,16.90
2017-09-28T18:37:05.317Z,16.90
2017-09-28T18:39:32.818Z,16.90
2017-09-28T18:42:00.278Z,16.90
2017-09-28T18:44:27.732Z,16.80
2017-09-28T18:46:55.218Z,16.80
2017-09-28T18:49:23.429Z,16.70
2017-09-28T18:51:50.878Z,16.70
2017-09-28T18:54:18.352Z,16.80
2017-09-28T18:56:45.800Z,16.70
2017-09-28T18:59:13.255Z,16.70
2017-09-28T19:01:40.744Z,16.60
2017-09-28T19:04:08.220Z,16.70
2017-09-28T19:06:35.675Z,16.70
2017-09-28T19:09:03.158Z,16.70
2017-09-28T19:11:31.665Z,16.60
2017-09-28T19:13:59.112Z,16.60
2017-09-28T19:16:26.588Z,16.60
2017-09-28T19:18:54.211Z,16.60
2017-09-28T19:21:22.431Z,16.60
2017-09-28T19:23:49.904Z,16.60
2017-09-28T19:26:17.370Z,16.60
2017-09-28T19:28:44.815Z,16.60
2017-09-28T19:31:12.556Z,16.60
2017-09-28T19:33:40.000Z,16.60
2017-09-28T19:36:07.444Z,16.60
2017-09-28T19:38:35.693Z,16.50
2017-09-28T19:41:03.140Z,16.50
2017-09-28T19:43:30.588Z,16.50
2017-09-28T19:45:59.011Z,16.50
2017-09-28T19:48:27.224Z,16.40
2017-09-28T19:50:54.682Z,16.40
2017-09-28T19:53:22.167Z,16.50
2017-09-28T19:55:49.607Z,16.40
2017-09-28T19:58:17.065Z,16.40
2017-09-28T20:00:44.539Z,16.40
2017-09-28T20:03:11.994Z,16.40
2017-09-28T20:05:39.432Z,16.40
2017-09-28T20:08:06.912Z,16.40
2017-09-28T20:10:34.360Z,16.40
2017-09-28T20:13:01.813Z,16.40
2017-09-28T20:15:29.298Z,16.40
2017-09-28T20:17:56.753Z,16.40
2017-09-28T20:20:24.478Z,16.40
2017-09-28T20:22:51.957Z,16.30
2017-09-28T20:25:19.408Z,16.30
2017-09-28T20:27:46.852Z,16.30
2017-09-28T20:30:14.329Z,16.30
2017-09-28T20:32:41.783Z,16.30
2017-09-28T20:35:09.228Z,16.30
2017-09-28T20:37:36.716Z,16.30
2017-09-28T20:40:04.170Z,16.30
2017-09-28T20:42:31.616Z,16.30
2017-09-28T20:44:59.089Z,16.20
2017-09-28T20:47:26.542Z,16.30
2017-09-28T20:49:53.985Z,16.30
2017-09-28T20:52:21.456Z,16.30
2017-09-28T20:54:49.190Z,16.20
2017-09-28T20:57:16.647Z,16.10
2017-09-28T20:59:44.120Z,16.10
2017-09-28T21:02:11.574Z,16.10
2017-09-28T21:04:39.028Z,16.20
2017-09-28T21:07:06.553Z,16.10
2017-09-28T21:09:34.777Z,16.10
2017-09-28T21:12:02.220Z,16.10
2017-09-28T21:14:29.712Z,16.10
2017-09-28T21:16:57.231Z,16.10
2017-09-28T21:19:24.676Z,16.00
2017-09-28T21:21:52.153Z,16.00
2017-09-28T21:24:19.601Z,16.00
2017-09-28T21:26:47.048Z,16.00
2017-09-28T21:29:14.520Z,16.00
2017-09-28T21:31:41.964Z,16.00
2017-09-28T21:34:09.742Z,16.00
2017-09-28T21:36:37.217Z,16.00
2017-09-28T21:39:04.665Z,15.90
2017-09-28T21:41:32.953Z,15.90
2017-09-28T21:44:00.424Z,15.90
2017-09-28T21:46:28.165Z,15.90
2017-09-28T21:48:55.604Z,15.90
2017-09-28T21:51:23.077Z,15.90
2017-09-28T21:53:50.524Z,15.90
2017-09-28T21:56:17.973Z,15.90
2017-09-28T21:58:45.470Z,15.80
2017-09-28T22:01:12.913Z,15.80
2017-09-28T22:03:40.362Z,15.80
2017-09-28T22:06:07.842Z,15.80
2017-09-28T22:08:36.053Z,15.80
2017-09-28T22:11:04.266Z,15.80
2017-09-28T22:13:31.740Z,15.80
2017-09-28T22:15:59.194Z,15.80
2017-09-28T22:18:26.637Z,15.70
2017-09-28T22:20:54.114Z,15.80
2017-09-28T22:23:21.561Z,15.70
2017-09-28T22:25:49.008Z,15.70
2017-09-28T22:28:16.508Z,15.70
2017-09-28T22:30:43.944Z,15.70
2017-09-28T22:33:11.391Z,15.70
2017-09-28T22:35:38.867Z,15.70
2017-09-28T22:38:06.668Z,15.60
2017-09-28T22:40:34.100Z,15.60
2017-09-28T22:43:01.576Z,15.60
2017-09-28T22:45:29.022Z,15.60
2017-09-28T22:47:57.975Z,15.50
2017-09-28T22:50:25.447Z,15.50
2017-09-28T22:52:52.892Z,15.60
2017-09-28T22:55:20.346Z,15.50
2017-09-28T22:57:47.837Z,15.60
2017-09-28T23:00:15.293Z,15.50
2017-09-28T23:02:42.748Z,15.50
2017-09-28T23:05:10.230Z,15.50
2017-09-28T23:07:37.673Z,15.50
2017-09-28T23:10:05.116Z,15.50
2017-09-28T23:12:32.589Z,15.50
2017-09-28T23:15:00.039Z,15.40
2017-09-28T23:17:28.252Z,15.40
2017-09-28T23:19:56.504Z,15.40
2017-09-28T23:22:23.951Z,15.40
2017-09-28T23:24:51.420Z,15.40
2017-09-28T23:27:18.910Z,15.40
2017-09-28T23:29:47.127Z,15.40
2017-09-28T23:32:14.584Z,15.40
2017-09-28T23:34:42.053Z,15.40
2017-09-28T23:37:09.497Z,15.30
2017-09-28T23:39:37.258Z,15.30
2017-09-28T23:42:04.741Z,15.30
2017-09-28T23:44:32.189Z,15.30
2017-09-28T23:46:59.640Z,15.30
2017-09-28T23:49:27.120Z,15.30
2017-09-28T23:51:54.574Z,15.30
2017-09-28T23:54:22.029Z,15.30
2017-09-28T23:56:49.507Z,15.20
2017-09-28T23:59:17.224Z,15.20
